sensor_id;sensor_type;location;lat;lon;timestamp;pressure;altitude;pressure_sealevel;temperature;humidity
22930;BME280;11630;42.660;23.292;2023-03-19T00:01:26;67842.78;;;2.74;95.27
22930;BME280;11630;42.660;23.292;2023-03-19T00:03:56;67847.09;;;2.78;96.11
22930;BME280;11630;42.660;23.292;2023-03-19T00:06:27;67849.25;;;2.80;96.52
22930;BME280;11630;42.660;23.292;2023-03-19T00:08:57;67858.47;;;2.91;96.26
22930;BME280;11630;42.660;23.292;2023-03-19T00:11:27;67864.08;;;2.90;95.35
22930;BME280;11630;42.660;23.292;2023-03-19T00:13:59;67856.28;;;2.86;94.95
22930;BME280;11630;42.660;23.292;2023-03-19T00:16:29;67841.69;;;2.73;95.35
22930;BME280;11630;42.660;23.292;2023-03-19T00:19:00;67851.44;;;2.84;96.21
22930;BME280;11630;42.660;23.292;2023-03-19T00:21:31;67852.80;;;2.87;96.83
22930;BME280;11630;42.660;23.292;2023-03-19T00:24:01;67840.06;;;2.69;97.57
22930;BME280;11630;42.660;23.292;2023-03-19T00:26:32;67831.97;;;2.64;96.48
22930;BME280;11630;42.660;23.292;2023-03-19T00:29:03;67836.56;;;2.67;96.19
22930;BME280;11630;42.660;23.292;2023-03-19T00:31:32;67815.75;;;2.46;96.93
22930;BME280;11630;42.660;23.292;2023-03-19T00:34:02;67833.88;;;2.67;97.78
22930;BME280;11630;42.660;23.292;2023-03-19T00:36:35;67830.63;;;2.64;97.98
22930;BME280;11630;42.660;23.292;2023-03-19T00:39:06;67808.53;;;2.46;97.72
22930;BME280;11630;42.660;23.292;2023-03-19T00:41:37;67807.13;;;2.41;98.22
22930;BME280;11630;42.660;23.292;2023-03-19T00:44:08;67806.33;;;2.39;98.49
22930;BME280;11630;42.660;23.292;2023-03-19T00:46:39;67811.45;;;2.42;99.09
22930;BME280;11630;42.660;23.292;2023-03-19T00:49:10;67805.80;;;2.41;98.59
22930;BME280;11630;42.660;23.292;2023-03-19T00:51:41;67819.79;;;2.49;98.94
22930;BME280;11630;42.660;23.292;2023-03-19T00:54:13;67806.05;;;2.40;99.33
22930;BME280;11630;42.660;23.292;2023-03-19T00:56:43;67821.44;;;2.53;98.20
22930;BME280;11630;42.660;23.292;2023-03-19T00:59:14;67818.75;;;2.50;98.10
22930;BME280;11630;42.660;23.292;2023-03-19T01:01:45;67834.96;;;2.68;98.07
22930;BME280;11630;42.660;23.292;2023-03-19T01:04:16;67841.67;;;2.70;96.73
22930;BME280;11630;42.660;23.292;2023-03-19T01:06:47;67853.59;;;2.84;96.24
22930;BME280;11630;42.660;23.292;2023-03-19T01:09:17;67845.20;;;2.75;96.67
22930;BME280;11630;42.660;23.292;2023-03-19T01:11:48;67846.05;;;2.79;96.89
22930;BME280;11630;42.660;23.292;2023-03-19T01:14:18;67858.42;;;2.88;96.12
22930;BME280;11630;42.660;23.292;2023-03-19T01:16:49;67850.85;;;2.79;96.31
22930;BME280;11630;42.660;23.292;2023-03-19T01:19:20;67842.78;;;2.74;95.93
22930;BME280;11630;42.660;23.292;2023-03-19T01:21:51;67859.27;;;2.93;96.12
22930;BME280;11630;42.660;23.292;2023-03-19T01:24:22;67841.97;;;2.74;96.35
22930;BME280;11630;42.660;23.292;2023-03-19T01:26:55;67845.20;;;2.75;96.82
22930;BME280;11630;42.660;23.292;2023-03-19T01:29:25;67846.00;;;2.77;96.34
22930;BME280;11630;42.660;23.292;2023-03-19T01:31:56;67838.17;;;2.68;96.64
22930;BME280;11630;42.660;23.292;2023-03-19T01:34:26;67826.32;;;2.60;97.13
22930;BME280;11630;42.660;23.292;2023-03-19T01:36:57;67838.45;;;2.70;97.33
22930;BME280;11630;42.660;23.292;2023-03-19T01:39:28;67837.93;;;2.72;96.46
22930;BME280;11630;42.660;23.292;2023-03-19T01:42:02;67842.78;;;2.74;96.19
22930;BME280;11630;42.660;23.292;2023-03-19T01:44:36;67828.47;;;2.62;97.07
22930;BME280;11630;42.660;23.292;2023-03-19T01:47:16;67808.78;;;2.45;97.40
22930;BME280;11630;42.660;23.292;2023-03-19T01:49:40;67801.45;;;2.32;97.47
22930;BME280;11630;42.660;23.292;2023-03-19T01:52:12;67767.48;;;2.06;98.50
22930;BME280;11630;42.660;23.292;2023-03-19T01:54:45;67756.12;;;1.93;99.37
22930;BME280;11630;42.660;23.292;2023-03-19T01:57:17;67745.11;;;1.86;100.00
22930;BME280;11630;42.660;23.292;2023-03-19T01:59:54;67742.65;;;1.80;100.00
22930;BME280;11630;42.660;23.292;2023-03-19T02:02:31;67742.08;;;1.77;100.00
22930;BME280;11630;42.660;23.292;2023-03-19T02:05:13;67760.47;;;1.99;100.00
22930;BME280;11630;42.660;23.292;2023-03-19T02:07:44;67774.75;;;2.11;100.00
22930;BME280;11630;42.660;23.292;2023-03-19T02:10:16;67748.86;;;1.87;100.00
22930;BME280;11630;42.660;23.292;2023-03-19T02:12:47;67762.89;;;2.00;100.00
22930;BME280;11630;42.660;23.292;2023-03-19T02:15:18;67786.38;;;2.23;100.00
22930;BME280;11630;42.660;23.292;2023-03-19T02:17:49;67781.50;;;2.16;100.00
22930;BME280;11630;42.660;23.292;2023-03-19T02:20:48;67789.60;;;2.26;100.00
22930;BME280;11630;42.660;23.292;2023-03-19T02:23:34;67808.22;;;2.42;98.91
22930;BME280;11630;42.660;23.292;2023-03-19T02:26:08;67804.71;;;2.40;98.50
22930;BME280;11630;42.660;23.292;2023-03-19T02:28:40;67801.74;;;2.36;99.01
22930;BME280;11630;42.660;23.292;2023-03-19T02:31:13;67800.11;;;2.32;99.43
22930;BME280;11630;42.660;23.292;2023-03-19T02:33:54;67805.19;;;2.33;99.60
22930;BME280;11630;42.660;23.292;2023-03-19T02:36:16;67789.05;;;2.23;100.00
22930;BME280;11630;42.660;23.292;2023-03-19T02:38:49;67787.16;;;2.23;99.92
22930;BME280;11630;42.660;23.292;2023-03-19T02:41:23;67761.23;;;1.96;100.00
22930;BME280;11630;42.660;23.292;2023-03-19T02:43:54;67743.45;;;1.82;100.00
22930;BME280;11630;42.660;23.292;2023-03-19T02:46:28;67756.67;;;1.93;100.00
22930;BME280;11630;42.660;23.292;2023-03-19T02:48:59;67776.09;;;2.11;100.00
22930;BME280;11630;42.660;23.292;2023-03-19T02:51:29;67766.92;;;2.03;100.00
22930;BME280;11630;42.660;23.292;2023-03-19T02:54:00;67742.94;;;1.84;100.00
22930;BME280;11630;42.660;23.292;2023-03-19T02:56:31;67749.38;;;1.85;100.00
22930;BME280;11630;42.660;23.292;2023-03-19T02:59:05;67747.48;;;1.85;100.00
22930;BME280;11630;42.660;23.292;2023-03-19T03:01:36;67760.17;;;1.95;100.00
22930;BME280;11630;42.660;23.292;2023-03-19T03:04:06;67778.25;;;2.13;100.00
22930;BME280;11630;42.660;23.292;2023-03-19T03:06:36;67739.66;;;1.76;100.00
22930;BME280;11630;42.660;23.292;2023-03-19T03:09:06;67737.79;;;1.76;100.00
22930;BME280;11630;42.660;23.292;2023-03-19T03:11:37;67727.02;;;1.68;100.00
22930;BME280;11630;42.660;23.292;2023-03-19T03:14:07;67722.41;;;1.63;100.00
22930;BME280;11630;42.660;23.292;2023-03-19T03:16:38;67725.67;;;1.68;100.00
22930;BME280;11630;42.660;23.292;2023-03-19T03:19:09;67734.02;;;1.72;100.00
22930;BME280;11630;42.660;23.292;2023-03-19T03:21:40;67741.56;;;1.79;100.00
22930;BME280;11630;42.660;23.292;2023-03-19T03:24:11;67737.23;;;1.75;100.00
22930;BME280;11630;42.660;23.292;2023-03-19T03:26:43;67738.83;;;1.74;100.00
22930;BME280;11630;42.660;23.292;2023-03-19T03:29:14;67725.13;;;1.65;100.00
22930;BME280;11630;42.660;23.292;2023-03-19T03:31:45;67728.61;;;1.67;100.00
22930;BME280;11630;42.660;23.292;2023-03-19T03:34:15;67744.53;;;1.83;100.00
22930;BME280;11630;42.660;23.292;2023-03-19T03:36:46;67771.50;;;2.06;100.00
22930;BME280;11630;42.660;23.292;2023-03-19T03:39:17;67776.38;;;2.13;100.00
22930;BME280;11630;42.660;23.292;2023-03-19T03:41:48;67763.16;;;2.02;100.00
22930;BME280;11630;42.660;23.292;2023-03-19T03:44:19;67759.36;;;1.96;100.00
22930;BME280;11630;42.660;23.292;2023-03-19T03:46:50;67755.59;;;1.92;100.00
22930;BME280;11630;42.660;23.292;2023-03-19T03:49:21;67745.62;;;1.84;100.00
22930;BME280;11630;42.660;23.292;2023-03-19T03:51:51;67755.31;;;1.91;100.00
22930;BME280;11630;42.660;23.292;2023-03-19T03:54:21;67754.50;;;1.91;100.00
22930;BME280;11630;42.660;23.292;2023-03-19T03:56:51;67758.01;;;1.93;100.00
22930;BME280;11630;42.660;23.292;2023-03-19T03:59:23;67753.16;;;1.89;100.00
22930;BME280;11630;42.660;23.292;2023-03-19T04:01:53;67747.47;;;1.82;100.00
22930;BME280;11630;42.660;23.292;2023-03-19T04:04:24;67751.83;;;1.91;100.00
22930;BME280;11630;42.660;23.292;2023-03-19T04:06:55;67749.39;;;1.88;100.00
22930;BME280;11630;42.660;23.292;2023-03-19T04:09:24;67748.03;;;1.85;100.00
22930;BME280;11630;42.660;23.292;2023-03-19T04:11:55;67754.25;;;1.92;100.00
22930;BME280;11630;42.660;23.292;2023-03-19T04:14:26;67765.30;;;2.01;100.00
22930;BME280;11630;42.660;23.292;2023-03-19T04:16:56;67765.33;;;2.04;100.00
22930;BME280;11630;42.660;23.292;2023-03-19T04:19:26;67755.33;;;1.93;100.00
22930;BME280;11630;42.660;23.292;2023-03-19T04:21:58;67722.47;;;1.68;100.00
22930;BME280;11630;42.660;23.292;2023-03-19T04:24:29;67714.33;;;1.55;100.00
22930;BME280;11630;42.660;23.292;2023-03-19T04:26:59;67732.11;;;1.69;100.00
22930;BME280;11630;42.660;23.292;2023-03-19T04:29:30;67701.41;;;1.46;100.00
22930;BME280;11630;42.660;23.292;2023-03-19T04:32:01;67721.64;;;1.66;100.00
22930;BME280;11630;42.660;23.292;2023-03-19T04:34:32;67735.08;;;1.73;100.00
22930;BME280;11630;42.660;23.292;2023-03-19T04:37:03;67752.05;;;1.85;100.00
22930;BME280;11630;42.660;23.292;2023-03-19T04:39:34;67749.91;;;1.86;100.00
22930;BME280;11630;42.660;23.292;2023-03-19T04:42:05;67745.09;;;1.84;100.00
22930;BME280;11630;42.660;23.292;2023-03-19T04:44:36;67736.41;;;1.73;100.00
22930;BME280;11630;42.660;23.292;2023-03-19T04:47:08;67751.50;;;1.85;100.00
22930;BME280;11630;42.660;23.292;2023-03-19T04:49:39;67763.97;;;2.01;100.00
22930;BME280;11630;42.660;23.292;2023-03-19T04:52:08;67763.97;;;2.01;100.00
22930;BME280;11630;42.660;23.292;2023-03-19T04:54:39;67760.72;;;1.98;100.00
22930;BME280;11630;42.660;23.292;2023-03-19T04:57:11;67759.64;;;1.97;100.00
22930;BME280;11630;42.660;23.292;2023-03-19T04:59:41;67746.95;;;1.84;100.00
22930;BME280;11630;42.660;23.292;2023-03-19T05:02:12;67749.09;;;1.84;100.00
22930;BME280;11630;42.660;23.292;2023-03-19T05:04:43;67729.16;;;1.68;100.00
22930;BME280;11630;42.660;23.292;2023-03-19T05:07:14;67706.78;;;1.49;100.00
22930;BME280;11630;42.660;23.292;2023-03-19T05:09:44;67710.28;;;1.51;100.00
22930;BME280;11630;42.660;23.292;2023-03-19T05:12:21;67724.30;;;1.63;100.00
22930;BME280;11630;42.660;23.292;2023-03-19T05:14:52;67728.61;;;1.67;100.00
22930;BME280;11630;42.660;23.292;2023-03-19T05:17:23;67705.17;;;1.47;100.00
22930;BME280;11630;42.660;23.292;2023-03-19T05:19:54;67714.29;;;1.51;100.00
22930;BME280;11630;42.660;23.292;2023-03-19T05:22:26;67714.59;;;1.54;100.00
22930;BME280;11630;42.660;23.292;2023-03-19T05:24:57;67731.58;;;1.69;100.00
22930;BME280;11630;42.660;23.292;2023-03-19T05:27:27;67784.19;;;2.19;100.00
22930;BME280;11630;42.660;23.292;2023-03-19T05:29:59;67792.28;;;2.26;100.00
22930;BME280;11630;42.660;23.292;2023-03-19T05:32:30;67791.20;;;2.25;100.00
22930;BME280;11630;42.660;23.292;2023-03-19T05:35:00;67802.83;;;2.37;100.00
22930;BME280;11630;42.660;23.292;2023-03-19T05:37:31;67820.34;;;2.49;100.00
22930;BME280;11630;42.660;23.292;2023-03-19T05:40:02;67823.83;;;2.51;100.00
22930;BME280;11630;42.660;23.292;2023-03-19T05:42:33;67858.66;;;2.85;100.00
22930;BME280;11630;42.660;23.292;2023-03-19T05:45:04;67890.80;;;3.13;100.00
22930;BME280;11630;42.660;23.292;2023-03-19T05:47:35;67910.30;;;3.36;100.00
22930;BME280;11630;42.660;23.292;2023-03-19T05:50:11;67958.67;;;3.81;100.00
22930;BME280;11630;42.660;23.292;2023-03-19T05:52:42;67931.06;;;3.51;98.76
22930;BME280;11630;42.660;23.292;2023-03-19T05:55:13;67948.91;;;3.68;97.89
22930;BME280;11630;42.660;23.292;2023-03-19T05:57:43;67944.84;;;3.65;98.35
22930;BME280;11630;42.660;23.292;2023-03-19T06:00:15;67966.77;;;3.89;97.97
22930;BME280;11630;42.660;23.292;2023-03-19T06:02:45;67986.48;;;4.03;97.24
22930;BME280;11630;42.660;23.292;2023-03-19T06:05:16;67999.19;;;4.14;95.05
22930;BME280;11630;42.660;23.292;2023-03-19T06:07:47;67975.42;;;3.97;94.15
22930;BME280;11630;42.660;23.292;2023-03-19T06:10:17;68002.20;;;4.23;91.88
22930;BME280;11630;42.660;23.292;2023-03-19T06:12:48;68015.16;;;4.30;90.56
22930;BME280;11630;42.660;23.292;2023-03-19T06:15:19;67971.11;;;3.93;91.58
22930;BME280;11630;42.660;23.292;2023-03-19T06:17:50;68061.42;;;4.76;89.57
22930;BME280;11630;42.660;23.292;2023-03-19T06:20:21;68066.80;;;4.76;86.70
22930;BME280;11630;42.660;23.292;2023-03-19T06:22:51;68050.33;;;4.67;87.78
22930;BME280;11630;42.660;23.292;2023-03-19T06:25:21;68080.36;;;4.93;85.58
22930;BME280;11630;42.660;23.292;2023-03-19T06:27:52;68092.79;;;5.02;84.98
22930;BME280;11630;42.660;23.292;2023-03-19T06:30:23;68082.78;;;4.94;85.02
22930;BME280;11630;42.660;23.292;2023-03-19T06:32:54;68123.66;;;5.33;82.68
22930;BME280;11630;42.660;23.292;2023-03-19T06:35:25;68124.71;;;5.31;82.02
22930;BME280;11630;42.660;23.292;2023-03-19T06:37:56;68177.25;;;5.77;81.26
22930;BME280;11630;42.660;23.292;2023-03-19T06:40:27;68182.97;;;5.89;78.68
22930;BME280;11630;42.660;23.292;2023-03-19T06:42:58;68204.36;;;6.07;82.66
22930;BME280;11630;42.660;23.292;2023-03-19T06:45:28;68530.94;;;9.06;100.00
22930;BME280;11630;42.660;23.292;2023-03-19T06:47:59;68639.37;;;10.04;100.00
22930;BME280;11630;42.660;23.292;2023-03-19T06:50:30;68772.38;;;11.24;94.61
22930;BME280;11630;42.660;23.292;2023-03-19T06:53:01;68869.31;;;12.13;89.34
22930;BME280;11630;42.660;23.292;2023-03-19T06:55:31;68581.45;;;9.47;65.09
22930;BME280;11630;42.660;23.292;2023-03-19T06:58:02;68445.13;;;8.25;66.81
22930;BME280;11630;42.660;23.292;2023-03-19T07:00:33;68451.38;;;8.35;64.96
22930;BME280;11630;42.660;23.292;2023-03-19T07:03:04;68410.65;;;7.92;65.44
22930;BME280;11630;42.660;23.292;2023-03-19T07:05:35;68403.60;;;7.91;66.21
22930;BME280;11630;42.660;23.292;2023-03-19T07:08:07;68415.80;;;7.98;67.30
22930;BME280;11630;42.660;23.292;2023-03-19T07:10:38;68371.59;;;7.59;69.19
22930;BME280;11630;42.660;23.292;2023-03-19T07:13:08;68460.05;;;8.38;66.73
22930;BME280;11630;42.660;23.292;2023-03-19T07:15:39;68425.03;;;8.09;68.13
22930;BME280;11630;42.660;23.292;2023-03-19T07:18:10;68420.70;;;8.05;67.38
22930;BME280;11630;42.660;23.292;2023-03-19T07:20:41;68438.05;;;8.16;64.71
22930;BME280;11630;42.660;23.292;2023-03-19T07:23:12;68438.88;;;8.18;63.90
22930;BME280;11630;42.660;23.292;2023-03-19T07:25:43;68440.50;;;8.20;63.35
22930;BME280;11630;42.660;23.292;2023-03-19T07:28:14;68405.51;;;7.91;66.53
22930;BME280;11630;42.660;23.292;2023-03-19T07:30:46;68470.92;;;8.47;63.50
22930;BME280;11630;42.660;23.292;2023-03-19T07:33:15;68504.56;;;8.78;61.42
22930;BME280;11630;42.660;23.292;2023-03-19T07:35:46;68477.70;;;8.57;60.79
22930;BME280;11630;42.660;23.292;2023-03-19T07:38:16;68509.46;;;8.85;60.08
22930;BME280;11630;42.660;23.292;2023-03-19T07:40:48;68453.29;;;8.35;62.06
22930;BME280;11630;42.660;23.292;2023-03-19T07:43:20;68482.33;;;8.63;60.54
22930;BME280;11630;42.660;23.292;2023-03-19T07:45:50;68538.55;;;9.16;59.48
22930;BME280;11630;42.660;23.292;2023-03-19T07:48:20;68573.56;;;9.41;57.68
22930;BME280;11630;42.660;23.292;2023-03-19T07:50:51;68580.91;;;9.52;55.99
22930;BME280;11630;42.660;23.292;2023-03-19T07:53:22;68577.36;;;9.42;55.24
22930;BME280;11630;42.660;23.292;2023-03-19T07:55:52;68584.70;;;9.53;54.84
22930;BME280;11630;42.660;23.292;2023-03-19T07:58:22;68564.06;;;9.31;56.67
22930;BME280;11630;42.660;23.292;2023-03-19T08:00:54;68533.92;;;9.08;59.26
22930;BME280;11630;42.660;23.292;2023-03-19T08:03:24;68593.70;;;9.67;55.75
22930;BME280;11630;42.660;23.292;2023-03-19T08:05:55;68629.55;;;9.95;54.91
22930;BME280;11630;42.660;23.292;2023-03-19T08:08:26;68634.45;;;9.97;53.61
22930;BME280;11630;42.660;23.292;2023-03-19T08:10:56;68661.11;;;10.21;53.42
22930;BME280;11630;42.660;23.292;2023-03-19T08:13:27;68691.30;;;10.53;51.65
22930;BME280;11630;42.660;23.292;2023-03-19T08:15:58;68730.19;;;10.84;49.53
22930;BME280;11630;42.660;23.292;2023-03-19T08:18:27;68761.75;;;11.16;49.43
22930;BME280;11630;42.660;23.292;2023-03-19T08:20:58;68702.17;;;10.58;51.76
22930;BME280;11630;42.660;23.292;2023-03-19T08:23:29;68673.61;;;10.33;52.26
22930;BME280;11630;42.660;23.292;2023-03-19T08:26:00;68720.13;;;10.76;51.35
22930;BME280;11630;42.660;23.292;2023-03-19T08:28:30;68763.38;;;11.17;49.65
22930;BME280;11630;42.660;23.292;2023-03-19T08:31:10;68754.13;;;11.11;49.85
22930;BME280;11630;42.660;23.292;2023-03-19T08:33:41;68678.78;;;10.44;52.08
22930;BME280;11630;42.660;23.292;2023-03-19T08:36:12;68755.22;;;11.12;51.96
22930;BME280;11630;42.660;23.292;2023-03-19T08:38:50;68677.16;;;10.40;53.58
22930;BME280;11630;42.660;23.292;2023-03-19T08:41:16;68688.31;;;10.49;53.36
22930;BME280;11630;42.660;23.292;2023-03-19T08:43:48;68768.83;;;11.22;51.94
22930;BME280;11630;42.660;23.292;2023-03-19T08:46:19;68826.55;;;11.77;48.60
22930;BME280;11630;42.660;23.292;2023-03-19T08:48:49;68869.58;;;12.14;47.21
22930;BME280;11630;42.660;23.292;2023-03-19T08:51:22;68939.30;;;12.80;47.07
22930;BME280;11630;42.660;23.292;2023-03-19T08:53:53;68956.50;;;12.97;45.39
22930;BME280;11630;42.660;23.292;2023-03-19T08:56:26;68890.27;;;12.30;46.91
22930;BME280;11630;42.660;23.292;2023-03-19T08:58:58;68995.20;;;13.22;45.80
22930;BME280;11630;42.660;23.292;2023-03-19T09:01:29;69022.47;;;13.52;43.95
22930;BME280;11630;42.660;23.292;2023-03-19T09:04:00;68942.86;;;12.80;45.37
22930;BME280;11630;42.660;23.292;2023-03-19T09:06:30;68865.50;;;12.12;46.79
22930;BME280;11630;42.660;23.292;2023-03-19T09:09:01;68960.33;;;12.96;46.49
22930;BME280;11630;42.660;23.292;2023-03-19T09:11:32;69057.39;;;13.82;44.31
22930;BME280;11630;42.660;23.292;2023-03-19T09:14:04;69068.28;;;13.94;44.75
22930;BME280;11630;42.660;23.292;2023-03-19T09:16:36;69092.87;;;14.16;41.55
22930;BME280;11630;42.660;23.292;2023-03-19T09:19:07;69039.66;;;13.57;42.81
22930;BME280;11630;42.660;23.292;2023-03-19T09:21:38;69048.39;;;13.75;42.30
22930;BME280;11630;42.660;23.292;2023-03-19T09:24:09;68961.95;;;12.97;45.27
22930;BME280;11630;42.660;23.292;2023-03-19T09:26:40;68904.98;;;12.46;45.02
22930;BME280;11630;42.660;23.292;2023-03-19T09:29:12;69057.38;;;13.86;42.03
22930;BME280;11630;42.660;23.292;2023-03-19T09:31:43;69048.94;;;13.70;41.97
22930;BME280;11630;42.660;23.292;2023-03-19T09:34:14;69088.22;;;14.13;40.64
22930;BME280;11630;42.660;23.292;2023-03-19T09:36:45;69195.48;;;15.10;39.72
22930;BME280;11630;42.660;23.292;2023-03-19T09:39:16;69137.64;;;14.45;40.08
22930;BME280;11630;42.660;23.292;2023-03-19T09:42:04;69220.38;;;15.14;38.86
22930;BME280;11630;42.660;23.292;2023-03-19T09:44:35;69152.09;;;14.69;40.36
22930;BME280;11630;42.660;23.292;2023-03-19T09:47:42;69230.19;;;15.42;38.66
22930;BME280;11630;42.660;23.292;2023-03-19T09:49:47;69311.06;;;16.14;37.33
22930;BME280;11630;42.660;23.292;2023-03-19T09:52:55;69267.89;;;15.72;37.62
22930;BME280;11630;42.660;23.292;2023-03-19T09:55:34;69291.66;;;16.00;37.60
22930;BME280;11630;42.660;23.292;2023-03-19T09:58:08;69299.59;;;15.98;37.12
22930;BME280;11630;42.660;23.292;2023-03-19T10:00:38;69326.38;;;16.22;36.05
22930;BME280;11630;42.660;23.292;2023-03-19T10:17:09;69281.55;;;15.87;36.96
22930;BME280;11630;42.660;23.292;2023-03-19T10:19:44;69336.23;;;16.39;36.23
22930;BME280;11630;42.660;23.292;2023-03-19T10:22:15;69367.94;;;16.63;35.48
22930;BME280;11630;42.660;23.292;2023-03-19T10:24:47;69385.16;;;16.80;35.40
22930;BME280;11630;42.660;23.292;2023-03-19T10:27:21;69457.11;;;17.49;34.87
22930;BME280;11630;42.660;23.292;2023-03-19T10:29:53;69492.45;;;17.72;34.57
22930;BME280;11630;42.660;23.292;2023-03-19T10:35:18;69623.59;;;18.97;32.92
22930;BME280;11630;42.660;23.292;2023-03-19T10:37:51;69477.92;;;17.65;33.88
22930;BME280;11630;42.660;23.292;2023-03-19T10:40:35;69550.22;;;18.28;32.86
22930;BME280;11630;42.660;23.292;2023-03-19T10:43:16;69660.64;;;19.22;32.38
22930;BME280;11630;42.660;23.292;2023-03-19T10:45:47;69668.03;;;19.30;32.01
22930;BME280;11630;42.660;23.292;2023-03-19T10:48:19;69551.30;;;18.32;32.33
22930;BME280;11630;42.660;23.292;2023-03-19T10:50:57;69562.78;;;18.45;32.38
22930;BME280;11630;42.660;23.292;2023-03-19T10:53:37;69532.91;;;18.19;32.79
22930;BME280;11630;42.660;23.292;2023-03-19T10:56:24;69599.24;;;18.69;32.14
22930;BME280;11630;42.660;23.292;2023-03-19T10:59:03;69685.33;;;19.42;32.16
22930;BME280;11630;42.660;23.292;2023-03-19T11:01:37;69736.84;;;19.96;30.92
22930;BME280;11630;42.660;23.292;2023-03-19T11:04:19;69671.87;;;19.33;31.25
22930;BME280;11630;42.660;23.292;2023-03-19T11:06:51;69563.06;;;18.44;32.37
22930;BME280;11630;42.660;23.292;2023-03-19T11:09:34;69526.88;;;18.16;33.01
22930;BME280;11630;42.660;23.292;2023-03-19T11:12:16;69499.53;;;17.86;32.88
22930;BME280;11630;42.660;23.292;2023-03-19T11:14:47;69662.24;;;19.31;31.29
22930;BME280;11630;42.660;23.292;2023-03-19T11:17:34;69700.12;;;19.55;31.46
22930;BME280;11630;42.660;23.292;2023-03-19T11:19:58;69802.09;;;20.55;30.30
22930;BME280;11630;42.660;23.292;2023-03-19T11:22:34;69796.08;;;20.47;30.07
22930;BME280;11630;42.660;23.292;2023-03-19T11:25:23;69770.84;;;20.24;30.78
22930;BME280;11630;42.660;23.292;2023-03-19T11:28:07;69731.34;;;19.89;30.58
22930;BME280;11630;42.660;23.292;2023-03-19T11:33:36;69568.00;;;18.46;32.11
22930;BME280;11630;42.660;23.292;2023-03-19T11:36:12;69711.03;;;19.73;31.10
22930;BME280;11630;42.660;23.292;2023-03-19T11:47:26;69651.87;;;19.14;31.06
22930;BME280;11630;42.660;23.292;2023-03-19T11:55:13;69743.05;;;20.13;30.02
22930;BME280;11630;42.660;23.292;2023-03-19T12:00:50;69829.77;;;20.87;30.00
22930;BME280;11630;42.660;23.292;2023-03-19T12:03:27;69898.39;;;21.49;28.56
22930;BME280;11630;42.660;23.292;2023-03-19T12:06:03;69712.71;;;19.69;29.87
22930;BME280;11630;42.660;23.292;2023-03-19T12:08:35;69814.41;;;20.70;28.86
22930;BME280;11630;42.660;23.292;2023-03-19T12:11:35;69898.72;;;21.40;28.38
22930;BME280;11630;42.660;23.292;2023-03-19T12:30:31;69880.95;;;21.13;28.30
22930;BME280;11630;42.660;23.292;2023-03-19T12:33:15;69774.94;;;20.32;29.55
22930;BME280;11630;42.660;23.292;2023-03-19T12:35:45;69822.39;;;20.76;29.05
22930;BME280;11630;42.660;23.292;2023-03-19T12:41:08;69916.66;;;21.45;28.94
22930;BME280;11630;42.660;23.292;2023-03-19T12:46:24;69897.42;;;21.28;28.64
22930;BME280;11630;42.660;23.292;2023-03-19T12:48:57;70048.53;;;22.67;27.19
22930;BME280;11630;42.660;23.292;2023-03-19T12:51:31;70009.20;;;22.35;27.61
22930;BME280;11630;42.660;23.292;2023-03-19T12:59:46;70067.69;;;22.92;26.69
22930;BME280;11630;42.660;23.292;2023-03-19T13:04:55;70189.57;;;23.98;25.52
22930;BME280;11630;42.660;23.292;2023-03-19T13:07:46;70224.01;;;24.23;25.45
22930;BME280;11630;42.660;23.292;2023-03-19T13:10:17;70230.04;;;24.31;25.00
22930;BME280;11630;42.660;23.292;2023-03-19T13:12:47;70173.61;;;23.84;25.46
22930;BME280;11630;42.660;23.292;2023-03-19T13:15:32;70209.97;;;24.11;25.20
22930;BME280;11630;42.660;23.292;2023-03-19T13:21:03;70231.27;;;24.19;25.01
22930;BME280;11630;42.660;23.292;2023-03-19T13:23:33;70062.81;;;22.80;26.40
22930;BME280;11630;42.660;23.292;2023-03-19T13:26:05;70150.92;;;23.47;26.04
22930;BME280;11630;42.660;23.292;2023-03-19T13:28:36;70150.92;;;23.47;26.04
22930;BME280;11630;42.660;23.292;2023-03-19T13:31:19;70156.33;;;23.62;25.59
22930;BME280;11630;42.660;23.292;2023-03-19T13:34:04;70125.48;;;23.39;25.71
22930;BME280;11630;42.660;23.292;2023-03-19T13:36:36;70025.25;;;22.37;26.56
22930;BME280;11630;42.660;23.292;2023-03-19T13:39:13;70105.84;;;23.35;26.26
22930;BME280;11630;42.660;23.292;2023-03-19T13:44:40;70119.65;;;23.40;25.57
22930;BME280;11630;42.660;23.292;2023-03-19T13:50:22;69973.45;;;22.05;27.60
22930;BME280;11630;42.660;23.292;2023-03-19T13:53:39;69934.47;;;21.68;28.15
22930;BME280;11630;42.660;23.292;2023-03-19T13:55:32;70002.23;;;22.40;26.85
22930;BME280;11630;42.660;23.292;2023-03-19T13:58:20;70073.48;;;22.96;26.26
22930;BME280;11630;42.660;23.292;2023-03-19T14:00:59;70067.91;;;22.98;26.15
22930;BME280;11630;42.660;23.292;2023-03-19T14:03:31;69910.03;;;21.44;27.87
22930;BME280;11630;42.660;23.292;2023-03-19T14:06:03;69881.15;;;21.27;28.24
22930;BME280;11630;42.660;23.292;2023-03-19T14:08:41;70013.02;;;22.41;26.98
22930;BME280;11630;42.660;23.292;2023-03-19T14:11:19;70058.61;;;22.85;26.54
22930;BME280;11630;42.660;23.292;2023-03-19T14:13:46;70112.20;;;23.34;26.28
22930;BME280;11630;42.660;23.292;2023-03-19T14:16:23;70085.53;;;23.12;26.09
22930;BME280;11630;42.660;23.292;2023-03-19T14:18:56;70094.80;;;22.96;26.22
22930;BME280;11630;42.660;23.292;2023-03-19T14:21:41;70090.08;;;22.98;26.69
22930;BME280;11630;42.660;23.292;2023-03-19T14:27:14;70021.86;;;22.44;27.28
22930;BME280;11630;42.660;23.292;2023-03-19T14:29:45;69963.84;;;21.95;27.30
22930;BME280;11630;42.660;23.292;2023-03-19T14:32:18;70009.97;;;22.42;27.01
22930;BME280;11630;42.660;23.292;2023-03-19T14:34:49;69940.14;;;21.84;27.61
22930;BME280;11630;42.660;23.292;2023-03-19T14:37:33;69878.67;;;21.26;29.25
22930;BME280;11630;42.660;23.292;2023-03-19T14:45:58;70019.84;;;22.53;27.25